Time;durP1;ratioP1;P1;durP2;ratioP2;P2;SDS_P1;SDS_P2;PMS_P1;PMS_P2;Temp;Humidity;BMP_temperature;BMP_pressure;BME280_temperature;BME280_humidity;BME280_pressure;Samples;Min_cycle;Max_cycle;Signal;HPM_P1;HPM_P2
2021/06/04 00:00:25;;;;;;;6.40;2.50;;;17.00;67.60;;;;;;4934600;29;20103;-74
2021/06/04 00:02:52;;;;;;;3.42;2.67;;;17.00;67.50;;;;;;4934576;29;20083;-74
2021/06/04 00:05:22;;;;;;;4.03;2.90;;;17.00;67.90;;;;;;4934372;29;20387;-75
2021/06/04 00:07:48;;;;;;;3.30;2.70;;;16.90;67.90;;;;;;4934398;29;20035;-75
2021/06/04 00:10:28;;;;;;;3.65;2.65;;;16.80;68.50;;;;;;4934790;29;20134;-75
2021/06/04 00:12:55;;;;;;;8.40;3.13;;;16.80;68.50;;;;;;4934368;29;20412;-75
2021/06/04 00:15:26;;;;;;;7.30;2.83;;;16.80;68.40;;;;;;4934624;29;20032;-75
2021/06/04 00:17:52;;;;;;;6.53;2.63;;;16.80;68.40;;;;;;4934794;29;20028;-75
2021/06/04 00:20:26;;;;;;;6.53;2.80;;;16.80;68.30;;;;;;4934444;29;20023;-75
2021/06/04 00:22:52;;;;;;;4.28;2.40;;;16.80;68.40;;;;;;4934612;29;20083;-75
2021/06/04 00:25:19;;;;;;;4.55;2.47;;;16.80;68.30;;;;;;4934242;29;20044;-75
2021/06/04 00:27:45;;;;;;;3.97;2.78;;;16.80;68.60;;;;;;4934039;29;20063;-75
2021/06/04 00:30:11;;;;;;;2.97;2.63;;;16.70;69.00;;;;;;4934387;29;20055;-76
2021/06/04 00:32:37;;;;;;;4.05;2.60;;;16.60;69.30;;;;;;4934111;29;20038;-75
2021/06/04 00:35:07;;;;;;;8.48;2.90;;;16.60;69.70;;;;;;4934436;29;20031;-75
2021/06/04 00:37:32;;;;;;;9.50;2.87;;;16.50;69.70;;;;;;4947092;29;20043;-75
2021/06/04 00:39:58;;;;;;;6.63;2.58;;;16.40;70.20;;;;;;4953539;28;20136;-76
2021/06/04 00:42:27;;;;;;;3.85;2.78;;;16.40;70.50;;;;;;4956444;28;20110;-76
2021/06/04 00:44:56;;;;;;;4.30;2.97;;;16.30;71.00;;;;;;4957078;28;20023;-76
2021/06/04 00:47:23;;;;;;;7.35;2.53;;;16.20;71.20;;;;;;4956676;28;20027;-76
2021/06/04 00:49:49;;;;;;;5.20;2.70;;;16.20;71.50;;;;;;4956705;28;20023;-73
2021/06/04 00:52:29;;;;;;;3.25;2.80;;;16.20;71.60;;;;;;4956818;28;20043;-74
2021/06/04 00:54:57;;;;;;;3.78;2.80;;;16.20;72.10;;;;;;4956686;28;20506;-74
2021/06/04 00:57:24;;;;;;;3.80;2.33;;;16.10;72.60;;;;;;4956691;28;20042;-75
2021/06/04 00:59:50;;;;;;;5.43;2.80;;;16.00;73.20;;;;;;4956406;28;20027;-75
2021/06/04 01:02:22;;;;;;;4.38;2.50;;;15.90;74.20;;;;;;4956305;28;20035;-75
2021/06/04 01:04:48;;;;;;;3.63;2.80;;;15.90;74.50;;;;;;4956565;28;20019;-75
2021/06/04 01:07:23;;;;;;;3.10;2.80;;;15.90;74.90;;;;;;4956229;28;20043;-75
2021/06/04 01:10:07;;;;;;;3.47;2.90;;;15.90;75.20;;;;;;4956590;28;20082;-74
2021/06/04 01:12:56;;;;;;;4.18;2.90;;;15.80;75.60;;;;;;4956227;29;20031;-75
2021/06/04 01:15:27;;;;;;;3.00;2.80;;;15.70;77.40;;;;;;4956587;28;20028;-72
2021/06/04 01:18:14;;;;;;;5.30;2.78;;;15.70;78.40;;;;;;4956367;28;20033;-72
2021/06/04 01:20:48;;;;;;;4.78;3.05;;;15.70;78.80;;;;;;4956231;29;20042;-72
2021/06/04 01:23:39;;;;;;;7.40;2.60;;;15.70;78.60;;;;;;4956322;28;20031;-72
2021/06/04 01:26:23;;;;;;;5.07;2.63;;;15.70;78.80;;;;;;4956327;28;20835;-72
2021/06/04 01:28:52;;;;;;;5.85;2.40;;;15.80;79.70;;;;;;4955901;28;20034;-71
2021/06/04 01:31:47;;;;;;;3.42;2.55;;;15.80;80.20;;;;;;4956266;28;20177;-71
2021/06/04 01:34:24;;;;;;;4.40;2.55;;;15.70;80.90;;;;;;4955505;29;20031;-72
2021/06/04 01:37:03;;;;;;;5.00;2.67;;;15.70;81.90;;;;;;4955595;28;20105;-71
2021/06/04 01:39:37;;;;;;;5.70;2.55;;;15.60;83.00;;;;;;4955781;28;20023;-71
2021/06/04 01:42:06;;;;;;;3.30;3.00;;;15.60;82.80;;;;;;4954458;29;20391;-73
2021/06/04 01:44:48;;;;;;;3.10;2.40;;;15.60;84.20;;;;;;4955869;28;20093;-75
2021/06/04 01:47:19;;;;;;;4.28;2.53;;;15.60;85.00;;;;;;4955459;28;20050;-73
2021/06/04 01:49:48;;;;;;;3.47;2.50;;;15.50;85.50;;;;;;4955540;28;20062;-73
2021/06/04 01:52:26;;;;;;;3.80;2.93;;;15.50;85.20;;;;;;4955095;28;20030;-73
2021/06/04 01:55:10;;;;;;;3.50;2.50;;;15.60;85.20;;;;;;4955630;28;20046;-73
2021/06/04 01:57:47;;;;;;;2.90;2.63;;;15.60;86.50;;;;;;4955359;28;20019;-73
2021/06/04 02:00:25;;;;;;;4.45;2.90;;;15.60;85.90;;;;;;4955403;28;20020;-74
2021/06/04 02:02:51;;;;;;;3.42;2.40;;;15.70;85.60;;;;;;4955463;28;20031;-73
2021/06/04 02:05:21;;;;;;;4.82;2.60;;;15.60;87.10;;;;;;4955352;28;20034;-73
2021/06/04 02:07:47;;;;;;;;;;;15.60;87.50;;;;;;4954473;28;20875;-73
2021/06/04 02:10:29;;;;;;;4.25;2.50;;;15.60;88.70;;;;;;4955449;28;19911;-72
2021/06/04 02:12:55;;;;;;;2.97;2.33;;;15.50;88.50;;;;;;4955161;28;20043;-72
2021/06/04 02:15:27;;;;;;;4.18;2.55;;;15.50;89.40;;;;;;4955503;28;20027;-72
2021/06/04 02:17:57;;;;;;;3.80;2.63;;;15.50;90.30;;;;;;4954914;28;20034;-72
2021/06/04 02:20:42;;;;;;;4.63;2.40;;;15.50;90.40;;;;;;4955010;28;20360;-72
2021/06/04 02:23:36;;;;;;;3.65;2.67;;;15.40;91.00;;;;;;4955006;28;20104;-71
2021/06/04 02:26:33;;;;;;;2.40;2.20;;;15.40;92.60;;;;;;4954818;28;20562;-75
2021/06/04 02:29:13;;;;;;;3.03;2.60;;;15.40;93.80;;;;;;4954788;28;20051;-75
2021/06/04 02:31:50;;;;;;;7.47;2.92;;;15.30;93.40;;;;;;4954737;29;20056;-72
2021/06/04 02:34:21;;;;;;;8.98;3.35;;;15.40;94.20;;;;;;4954680;28;20561;-71
2021/06/04 02:37:13;;;;;;;5.03;2.30;;;15.40;94.10;;;;;;4954294;28;20050;-72
2021/06/04 02:39:48;;;;;;;2.63;2.40;;;15.40;95.30;;;;;;4954581;28;20107;-71
2021/06/04 02:42:17;;;;;;;6.55;2.85;;;15.40;95.10;;;;;;4954595;28;20110;-72
2021/06/04 02:44:59;;;;;;;6.80;2.97;;;15.30;96.30;;;;;;4954396;28;20155;-72
2021/06/04 02:47:36;;;;;;;7.25;2.58;;;15.30;97.70;;;;;;4954425;28;20035;-72
2021/06/04 02:50:19;;;;;;;10.02;2.78;;;15.30;97.20;;;;;;4954515;28;20030;-72
2021/06/04 02:52:45;;;;;;;5.65;2.70;;;15.40;97.00;;;;;;4954315;29;20037;-72
2021/06/04 02:55:31;;;;;;;5.60;3.00;;;15.50;96.30;;;;;;4954416;28;20030;-72
2021/06/04 02:57:57;;;;;;;4.88;2.30;;;15.60;96.50;;;;;;4954372;28;20403;-71
2021/06/04 03:00:29;;;;;;;3.78;2.40;;;15.70;96.00;;;;;;4954646;28;20023;-71
2021/06/04 03:02:56;;;;;;;4.75;2.63;;;15.80;95.50;;;;;;4953873;28;20035;-72
2021/06/04 03:05:28;;;;;;;5.53;2.67;;;15.80;94.80;;;;;;4953961;28;20019;-72
2021/06/04 03:07:54;;;;;;;4.38;2.50;;;15.90;94.20;;;;;;4954143;28;20027;-72
2021/06/04 03:10:30;;;;;;;3.15;2.85;;;16.00;94.20;;;;;;4954494;28;20024;-72
2021/06/04 03:12:56;;;;;;;3.95;2.90;;;16.00;94.90;;;;;;4954050;28;20027;-72
2021/06/04 03:15:39;;;;;;;6.57;2.95;;;16.10;94.60;;;;;;4954441;28;20034;-72
2021/06/04 03:18:07;;;;;;;3.17;2.70;;;16.30;94.50;;;;;;4954170;28;20118;-72
2021/06/04 03:20:38;;;;;;;3.17;2.65;;;16.60;92.40;;;;;;4953964;28;20031;-74
2021/06/04 03:23:07;;;;;;;4.70;2.70;;;17.00;89.40;;;;;;4954056;28;20023;-74
2021/06/04 03:25:40;;;;;;;4.75;2.47;;;17.20;85.00;;;;;;4952630;29;20035;-75
2021/06/04 03:28:08;;;;;;;7.65;2.53;;;17.50;81.60;;;;;;4954385;28;20043;-75
2021/06/04 03:30:38;;;;;;;3.10;2.55;;;17.70;80.00;;;;;;4953968;28;20023;-76
2021/06/04 03:33:05;;;;;;;3.15;2.85;;;17.90;77.50;;;;;;4953970;28;20041;-76
2021/06/04 03:35:31;;;;;;;3.92;2.58;;;18.20;74.80;;;;;;4954004;28;20034;-73
2021/06/04 03:37:58;;;;;;;3.30;2.22;;;18.50;72.50;;;;;;4953692;28;20090;-73
2021/06/04 03:40:27;;;;;;;3.80;2.40;;;18.80;70.90;;;;;;4954049;28;20033;-73
2021/06/04 03:42:54;;;;;;;2.60;2.10;;;19.10;68.50;;;;;;4952499;28;20031;-73
2021/06/04 03:45:24;;;;;;;3.47;2.38;;;19.50;66.80;;;;;;4954089;28;20074;-76
2021/06/04 03:47:50;;;;;;;4.55;2.60;;;19.80;65.10;;;;;;4953691;28;20035;-76
2021/06/04 03:50:16;;;;;;;2.65;2.20;;;20.20;63.20;;;;;;4954086;28;20034;-75
2021/06/04 03:52:42;;;;;;;3.92;2.15;;;20.50;62.60;;;;;;4953613;28;20390;-76
2021/06/04 03:55:12;;;;;;;3.55;2.42;;;20.80;61.60;;;;;;4953836;28;20087;-76
2021/06/04 03:57:39;;;;;;;6.07;2.50;;;21.10;61.30;;;;;;4953931;28;20708;-72
2021/06/04 04:00:27;;;;;;;3.05;2.05;;;21.30;59.30;;;;;;4953778;28;20115;-72
2021/06/04 04:02:55;;;;;;;4.30;2.13;;;21.50;58.40;;;;;;4953210;29;20403;-72
2021/06/04 04:05:21;;;;;;;3.75;2.20;;;21.60;57.90;;;;;;4953468;28;20070;-72
2021/06/04 04:07:47;;;;;;;3.38;2.22;;;21.80;57.70;;;;;;4953608;28;20027;-72
2021/06/04 04:10:13;;;;;;;4.78;2.05;;;22.00;57.40;;;;;;4953549;28;20027;-72
2021/06/04 04:12:40;;;;;;;2.63;1.98;;;22.10;57.10;;;;;;4953265;29;20027;-72
2021/06/04 04:15:08;;;;;;;2.25;2.03;;;22.20;57.40;;;;;;4954863;28;20493;-73
2021/06/04 04:17:35;;;;;;;4.88;2.25;;;22.30;56.30;;;;;;4956885;28;20112;-72
2021/06/04 04:20:00;;;;;;;4.30;2.08;;;22.50;55.90;;;;;;4957488;29;20032;-72
2021/06/04 04:22:27;;;;;;;2.75;2.00;;;22.60;56.10;;;;;;4957117;28;20054;-73
2021/06/04 04:24:53;;;;;;;8.82;2.40;;;22.80;56.10;;;;;;4957290;28;20031;-75
2021/06/04 04:27:19;;;;;;;3.88;2.20;;;22.90;55.60;;;;;;4956982;28;20495;-74
2021/06/04 04:29:45;;;;;;;5.35;2.33;;;23.10;54.80;;;;;;4956876;28;20036;-73
2021/06/04 04:32:16;;;;;;;5.00;2.30;;;23.40;54.20;;;;;;4956982;29;20031;-74
2021/06/04 04:34:43;;;;;;;2.80;2.00;;;23.60;53.70;;;;;;4956600;28;20051;-73
2021/06/04 04:37:09;;;;;;;5.13;2.08;;;23.80;52.60;;;;;;4956663;28;20047;-71
2021/06/04 04:39:39;;;;;;;7.93;2.40;;;24.00;52.10;;;;;;4956754;28;20139;-71
2021/06/04 04:42:08;;;;;;;4.03;1.90;;;24.20;51.90;;;;;;4956810;28;20023;-70
2021/06/04 04:44:37;;;;;;;4.95;2.35;;;24.50;51.60;;;;;;4956926;28;20114;-71
2021/06/04 04:47:06;;;;;;;10.65;2.10;;;24.60;51.50;;;;;;4956512;28;20495;-73
2021/06/04 04:49:32;;;;;;;2.25;1.90;;;24.70;50.50;;;;;;4952858;28;20040;-71
2021/06/04 04:51:58;;;;;;;5.03;2.30;;;24.80;51.40;;;;;;4931836;29;20042;-73
2021/06/04 04:54:24;;;;;;;3.08;2.10;;;25.10;49.70;;;;;;4934317;29;20020;-75
2021/06/04 04:56:50;;;;;;;3.70;2.03;;;25.40;49.50;;;;;;4931487;29;20127;-72
2021/06/04 04:59:17;;;;;;;2.80;1.95;;;25.60;49.10;;;;;;4926882;29;20099;-71
2021/06/04 05:01:43;;;;;;;7.60;2.10;;;25.60;48.40;;;;;;4928248;29;20027;-71
2021/06/04 05:04:09;;;;;;;4.72;1.70;;;25.70;49.00;;;;;;4928146;29;20043;-71
2021/06/04 05:06:35;;;;;;;6.38;1.90;;;25.80;49.50;;;;;;4926326;29;20432;-71
2021/06/04 05:09:04;;;;;;;8.25;1.80;;;25.90;48.30;;;;;;4927917;29;20055;-74
2021/06/04 05:11:29;;;;;;;4.88;1.60;;;26.20;48.50;;;;;;4927993;29;20409;-70
2021/06/04 05:13:55;;;;;;;11.70;1.85;;;26.40;48.60;;;;;;4926077;29;20031;-72
2021/06/04 05:16:21;;;;;;;5.75;2.00;;;26.50;47.10;;;;;;4928770;29;20029;-71
2021/06/04 05:18:47;;;;;;;13.40;2.28;;;26.70;47.60;;;;;;4936722;29;20033;-71
2021/06/04 05:21:16;;;;;;;9.60;1.80;;;26.80;47.10;;;;;;4936980;29;20522;-71
2021/06/04 05:23:41;;;;;;;6.00;1.70;;;27.00;46.80;;;;;;4937032;29;20109;-74
2021/06/04 05:26:08;;;;;;;9.13;1.92;;;27.20;46.50;;;;;;4936417;29;20481;-74
2021/06/04 05:28:34;;;;;;;2.20;1.55;;;27.50;45.40;;;;;;4936726;29;20080;-71
2021/06/04 05:31:04;;;;;;;4.20;1.77;;;27.70;46.00;;;;;;4936677;29;20099;-71
2021/06/04 05:33:33;;;;;;;5.82;1.65;;;27.90;45.10;;;;;;4936991;29;20035;-71
2021/06/04 05:36:21;;;;;;;6.05;1.92;;;27.90;45.30;;;;;;4925218;29;20039;-71
2021/06/04 05:38:48;;;;;;;2.97;1.50;;;28.10;45.10;;;;;;4917469;29;20054;-74
2021/06/04 05:41:15;;;;;;;5.20;1.60;;;28.10;44.70;;;;;;4917609;29;20124;-72
2021/06/04 05:43:43;;;;;;;7.75;1.80;;;28.20;44.70;;;;;;4917347;29;20039;-73
2021/06/04 05:46:12;;;;;;;7.03;1.63;;;28.30;44.40;;;;;;4917383;29;20098;-75
2021/06/04 05:48:39;;;;;;;4.50;1.67;;;28.40;44.20;;;;;;4917430;29;20111;-75
2021/06/04 05:51:09;;;;;;;5.05;1.83;;;28.50;43.60;;;;;;4917353;29;20267;-75
2021/06/04 05:53:37;;;;;;;13.40;2.25;;;28.50;43.90;;;;;;4917622;29;20068;-74
2021/06/04 05:56:05;;;;;;;9.73;2.35;;;28.50;44.70;;;;;;4917149;29;20024;-75
2021/06/04 05:58:31;;;;;;;8.95;2.00;;;28.50;43.60;;;;;;4917449;29;20024;-75
2021/06/04 06:01:00;;;;;;;8.98;1.60;;;28.60;43.70;;;;;;4917409;29;20028;-72
2021/06/04 06:03:29;;;;;;;5.65;1.88;;;28.60;43.70;;;;;;4917144;29;20032;-71
